Time;durP1;ratioP1;P1;durP2;ratioP2;P2;SDS_P1;SDS_P2;PMS_P1;PMS_P2;Temp;Humidity;BMP_temperature;BMP_pressure;BME280_temperature;BME280_humidity;BME280_pressure;Samples;Min_cycle;Max_cycle;Signal;HPM_P1;HPM_P2
2022/04/21 00:01:32;;;;;;;14.00;13.20;;;5.30;13.60;;;;;;5066624;28;20175;-70
2022/04/21 00:03:57;;;;;;;13.37;12.27;;;5.20;14.40;;;;;;5052896;28;20202;-71
2022/04/21 00:06:23;;;;;;;13.73;13.03;;;5.20;14.50;;;;;;5052928;28;20202;-70
2022/04/21 00:08:48;;;;;;;14.17;13.33;;;5.20;14.50;;;;;;5052671;28;20636;-70
2022/04/21 00:11:14;;;;;;;13.07;12.27;;;5.20;14.00;;;;;;5073232;28;20186;-71
2022/04/21 00:13:40;;;;;;;12.43;11.83;;;5.20;14.10;;;;;;5073868;28;20194;-70
2022/04/21 00:16:05;;;;;;;13.60;12.90;;;5.10;14.30;;;;;;5072682;28;20907;-70
2022/04/21 00:18:31;;;;;;;14.10;13.40;;;5.10;14.60;;;;;;5071421;28;20540;-70
2022/04/21 00:20:59;;;;;;;13.90;13.10;;;5.00;14.70;;;;;;5054004;28;20166;-70
2022/04/21 00:23:28;;;;;;;13.57;12.80;;;5.00;14.80;;;;;;5053908;28;20193;-69
2022/04/21 00:26:00;;;;;;;13.48;12.57;;;5.00;15.30;;;;;;5054413;28;20686;-70
2022/04/21 00:28:31;;;;;;;12.90;12.10;;;5.10;14.50;;;;;;5054460;28;20178;-70
2022/04/21 00:30:58;;;;;;;12.65;11.95;;;5.00;14.60;;;;;;5073725;28;20170;-70
2022/04/21 00:33:23;;;;;;;13.02;12.40;;;4.90;14.90;;;;;;5071992;28;20221;-70
2022/04/21 00:35:49;;;;;;;12.30;11.50;;;4.90;15.30;;;;;;5073558;28;20170;-71
2022/04/21 00:38:15;;;;;;;13.20;12.50;;;4.90;15.30;;;;;;5073247;28;20909;-70
2022/04/21 00:40:40;;;;;;;12.37;11.67;;;5.00;15.30;;;;;;5053820;28;20186;-70
2022/04/21 00:43:06;;;;;;;12.53;11.83;;;5.00;15.10;;;;;;5051955;28;20182;-70
2022/04/21 00:45:33;;;;;;;13.00;12.10;;;5.00;15.00;;;;;;5052169;28;20228;-70
2022/04/21 00:48:02;;;;;;;12.75;11.77;;;4.90;15.80;;;;;;5053142;28;20209;-70
2022/04/21 00:50:38;;;;;;;11.68;11.07;;;4.80;15.80;;;;;;5068796;28;20181;-72
2022/04/21 00:53:05;;;;;;;11.35;10.77;;;4.80;15.80;;;;;;5072706;28;20178;-70
2022/04/21 00:55:31;;;;;;;14.27;13.43;;;4.80;15.80;;;;;;5073331;28;20208;-70
2022/04/21 00:57:58;;;;;;;13.87;12.83;;;4.70;16.00;;;;;;5072920;28;20178;-70
2022/04/21 01:00:23;;;;;;;12.45;11.85;;;4.70;16.20;;;;;;5056481;28;20460;-71
2022/04/21 01:02:49;;;;;;;12.63;11.90;;;4.80;16.00;;;;;;5052125;28;20179;-69
2022/04/21 01:05:15;;;;;;;13.43;12.43;;;4.60;16.50;;;;;;5053302;28;20181;-71
2022/04/21 01:07:41;;;;;;;13.82;12.80;;;4.50;16.60;;;;;;5053068;28;20230;-70
2022/04/21 01:10:08;;;;;;;13.15;12.13;;;4.40;17.30;;;;;;5053571;28;20174;-70
2022/04/21 01:12:34;;;;;;;12.68;11.73;;;4.40;17.30;;;;;;5053008;28;20205;-71
2022/04/21 01:14:59;;;;;;;11.73;11.03;;;4.50;17.10;;;;;;5052711;28;20222;-70
2022/04/21 01:17:37;;;;;;;12.40;11.30;;;4.50;17.20;;;;;;5052637;28;20189;-71
2022/04/21 01:20:05;;;;;;;12.27;11.38;;;4.50;17.60;;;;;;5051198;28;20265;-70
2022/04/21 01:22:30;;;;;;;12.10;11.30;;;4.60;17.20;;;;;;5052620;28;20206;-70
2022/04/21 01:24:56;;;;;;;12.17;11.47;;;4.60;17.50;;;;;;5052757;28;20233;-69
2022/04/21 01:27:26;;;;;;;12.20;11.40;;;4.50;17.80;;;;;;5052375;28;20464;-69
2022/04/21 01:29:51;;;;;;;12.95;11.15;;;4.50;17.90;;;;;;5067539;28;20428;-71
2022/04/21 01:32:17;;;;;;;12.57;11.80;;;4.50;18.00;;;;;;5071098;28;20622;-69
2022/04/21 01:34:43;;;;;;;11.50;10.70;;;4.50;17.60;;;;;;5053600;28;20228;-71
2022/04/21 01:42:36;;;;;;;12.57;11.68;;;4.60;17.80;;;;;;5059194;28;20184;-69
2022/04/21 01:45:02;;;;;;;12.23;11.37;;;4.50;17.90;;;;;;5072333;28;20656;-69
2022/04/21 01:47:27;;;;;;;11.27;10.57;;;4.50;17.90;;;;;;5070196;28;20236;-69
2022/04/21 01:49:53;;;;;;;13.10;12.20;;;4.50;17.90;;;;;;5072221;28;20261;-71
2022/04/21 01:52:18;;;;;;;13.30;12.30;;;4.40;18.00;;;;;;5055306;28;20198;-70
2022/04/21 01:54:44;;;;;;;12.20;11.40;;;4.40;18.40;;;;;;5064039;22;20333;-70
2022/04/21 01:57:10;;;;;;;11.50;10.73;;;4.20;19.10;;;;;;5032281;28;20179;-71
2022/04/21 01:59:36;;;;;;;11.57;10.60;;;4.10;19.60;;;;;;5032262;28;20648;-68
2022/04/21 02:02:01;;;;;;;12.30;11.30;;;4.10;19.60;;;;;;5032027;28;20262;-70
2022/04/21 02:04:27;;;;;;;11.53;10.83;;;4.20;19.60;;;;;;5032186;28;20194;-70
2022/04/21 02:06:52;;;;;;;12.17;11.47;;;4.20;18.80;;;;;;5030766;28;20222;-69
2022/04/21 02:09:18;;;;;;;11.83;11.13;;;4.20;19.10;;;;;;5031879;28;20525;-70
2022/04/21 02:11:44;;;;;;;12.50;11.50;;;4.10;19.00;;;;;;5031786;28;20175;-70
2022/04/21 02:14:09;;;;;;;12.73;11.80;;;4.20;18.80;;;;;;5032042;28;20190;-71
2022/04/21 02:16:35;;;;;;;11.50;10.50;;;4.20;19.60;;;;;;5032244;28;20194;-70
2022/04/21 02:19:00;;;;;;;12.00;11.00;;;4.20;19.60;;;;;;5031966;28;20171;-70
2022/04/21 02:21:26;;;;;;;11.50;10.80;;;4.20;19.50;;;;;;5031705;28;20199;-70
2022/04/21 02:23:51;;;;;;;12.47;11.63;;;4.20;19.50;;;;;;5031962;28;20205;-70
2022/04/21 02:26:17;;;;;;;12.40;11.40;;;4.20;19.40;;;;;;5031806;28;20203;-71
2022/04/21 02:28:43;;;;;;;12.57;11.50;;;4.20;19.60;;;;;;5031607;28;20175;-70
2022/04/21 02:31:08;;;;;;;11.67;10.87;;;4.10;19.60;;;;;;5031168;28;20179;-70
2022/04/21 02:33:34;;;;;;;11.60;10.80;;;4.10;19.60;;;;;;5031302;28;20224;-70
2022/04/21 02:35:59;;;;;;;13.00;12.07;;;4.00;19.50;;;;;;5031805;28;20511;-70
2022/04/21 02:38:25;;;;;;;10.53;9.83;;;4.00;19.50;;;;;;5031541;28;20181;-70
2022/04/21 02:40:50;;;;;;;13.20;12.07;;;4.00;19.50;;;;;;5031557;28;20182;-70
2022/04/21 02:43:16;;;;;;;12.90;12.00;;;4.00;20.20;;;;;;5031631;28;20189;-70
2022/04/21 02:45:42;;;;;;;12.63;11.73;;;4.10;20.30;;;;;;5031488;28;20175;-71
2022/04/21 02:48:09;;;;;;;12.63;11.70;;;4.00;20.00;;;;;;5031406;28;20210;-71
2022/04/21 02:50:34;;;;;;;13.35;11.93;;;4.00;19.80;;;;;;5030403;28;20186;-71
2022/04/21 02:53:00;;;;;;;12.27;11.40;;;4.00;19.50;;;;;;5031708;28;20644;-70
2022/04/21 02:58:10;;;;;;;10.65;10.05;;;4.00;20.00;;;;;;5031658;28;20190;-71
2022/04/21 03:00:36;;;;;;;12.10;11.20;;;3.80;20.10;;;;;;5031214;28;20276;-71
2022/04/21 03:03:01;;;;;;;13.67;12.57;;;3.80;20.60;;;;;;5031532;28;20325;-70
2022/04/21 03:05:27;;;;;;;11.43;10.53;;;3.80;20.70;;;;;;5030142;28;20209;-71
2022/04/21 03:07:54;;;;;;;11.57;9.80;;;3.80;21.00;;;;;;5029855;28;20210;-70
2022/04/21 03:10:20;;;;;;;11.48;10.57;;;3.80;21.10;;;;;;5031134;28;20546;-70
2022/04/21 03:12:45;;;;;;;12.27;11.40;;;3.80;20.90;;;;;;5031269;28;20183;-70
2022/04/21 03:15:12;;;;;;;13.20;12.10;;;3.80;21.00;;;;;;5030784;28;20512;-70
2022/04/21 03:17:38;;;;;;;11.15;10.35;;;3.80;20.80;;;;;;5031161;28;20226;-71
2022/04/21 03:20:05;;;;;;;11.68;10.73;;;3.80;20.60;;;;;;5031139;28;20187;-71
2022/04/21 03:25:15;;;;;;;11.98;11.07;;;3.80;20.80;;;;;;5031006;28;20248;-70
2022/04/21 03:27:43;;;;;;;11.95;10.85;;;3.70;21.20;;;;;;5031154;28;20207;-71
2022/04/21 03:30:09;;;;;;;13.25;12.05;;;3.70;21.30;;;;;;5030944;28;20252;-71
2022/04/21 03:32:36;;;;;;;10.48;9.77;;;3.80;20.80;;;;;;5031286;28;20170;-71
2022/04/21 03:35:02;;;;;;;11.77;10.63;;;3.70;20.80;;;;;;5030684;28;20203;-70
2022/04/21 03:37:27;;;;;;;11.10;10.10;;;3.70;20.80;;;;;;5029482;28;20253;-71
2022/04/21 03:39:53;;;;;;;11.43;10.50;;;3.70;21.50;;;;;;5031096;28;20445;-71
2022/04/21 03:42:20;;;;;;;11.50;10.70;;;3.70;21.50;;;;;;5031492;28;20198;-71
2022/04/21 03:44:47;;;;;;;10.35;9.55;;;3.60;21.80;;;;;;5034213;28;20544;-70
2022/04/21 03:47:13;;;;;;;10.80;9.95;;;3.60;21.40;;;;;;5034452;28;20199;-71
2022/04/21 03:49:39;;;;;;;11.65;10.38;;;3.50;21.80;;;;;;5034468;28;20193;-70
2022/04/21 03:52:05;;;;;;;12.23;11.40;;;3.40;22.30;;;;;;5034569;28;20171;-70
2022/04/21 03:54:31;;;;;;;11.10;10.13;;;3.50;22.40;;;;;;5033994;28;20629;-70
2022/04/21 03:56:56;;;;;;;11.97;11.07;;;3.40;22.30;;;;;;5034369;28;20519;-70
2022/04/21 03:59:23;;;;;;;10.60;9.80;;;3.50;22.20;;;;;;5034161;28;20609;-70
2022/04/21 04:01:49;;;;;;;12.18;11.18;;;3.60;21.80;;;;;;5034461;28;20580;-70
2022/04/21 04:04:15;;;;;;;10.77;10.00;;;3.50;21.70;;;;;;5034180;28;20206;-70
2022/04/21 04:12:11;;;;;;;11.43;10.50;;;3.40;21.60;;;;;;5034129;28;20191;-70
2022/04/21 04:14:38;;;;;;;11.55;10.68;;;3.40;21.50;;;;;;5034040;28;20253;-70
2022/04/21 04:17:08;;;;;;;11.38;10.50;;;3.40;22.00;;;;;;5034077;28;20179;-70
2022/04/21 04:19:33;;;;;;;10.70;9.93;;;3.30;22.00;;;;;;5033613;28;20186;-70
2022/04/21 04:22:00;;;;;;;11.47;10.27;;;3.30;22.30;;;;;;5033991;28;20210;-70
2022/04/21 04:24:26;;;;;;;11.02;10.13;;;3.30;22.40;;;;;;5034001;28;20604;-71
2022/04/21 04:26:52;;;;;;;11.10;10.10;;;3.30;22.60;;;;;;5033899;28;20570;-70
2022/04/21 04:29:22;;;;;;;10.93;10.13;;;3.30;22.40;;;;;;5033547;28;20258;-70
2022/04/21 04:31:52;;;;;;;11.38;10.48;;;3.40;22.20;;;;;;5033757;28;20413;-69
2022/04/21 04:34:18;;;;;;;11.82;10.93;;;3.40;22.20;;;;;;5033475;28;20511;-70
2022/04/21 04:36:44;;;;;;;11.27;10.48;;;3.40;22.20;;;;;;5032234;28;20183;-69
2022/04/21 04:39:10;;;;;;;11.60;10.70;;;3.40;22.40;;;;;;5033157;28;20177;-69
2022/04/21 04:44:20;;;;;;;10.35;9.50;;;3.40;22.30;;;;;;5033518;28;20690;-70
2022/04/21 04:46:46;;;;;;;11.23;10.20;;;3.50;22.10;;;;;;5033533;28;20206;-70
2022/04/21 04:49:12;;;;;;;12.20;10.93;;;3.50;22.20;;;;;;5033014;28;20214;-70
2022/04/21 04:51:41;;;;;;;11.10;10.27;;;3.50;22.30;;;;;;5033497;28;20172;-70
2022/04/21 04:54:08;;;;;;;13.60;12.55;;;3.60;22.30;;;;;;5031636;28;20724;-70
2022/04/21 04:56:35;;;;;;;12.20;11.20;;;3.60;22.00;;;;;;5031812;28;20187;-70
2022/04/21 04:59:01;;;;;;;11.43;10.43;;;3.60;22.10;;;;;;5032800;28;20183;-70
2022/04/21 05:01:41;;;;;;;12.35;11.15;;;3.70;22.10;;;;;;5033310;28;20629;-70
2022/04/21 05:04:09;;;;;;;11.88;10.93;;;3.80;21.80;;;;;;5033384;28;20210;-70
2022/04/21 05:06:55;;;;;;;10.63;9.82;;;3.80;22.20;;;;;;5033123;28;20231;-71
2022/04/21 05:09:22;;;;;;;12.02;10.90;;;3.80;22.50;;;;;;5031520;28;20186;-71
2022/04/21 05:11:58;;;;;;;10.90;9.85;;;3.80;22.80;;;;;;5031930;28;20589;-69
2022/04/21 05:14:24;;;;;;;11.20;10.30;;;3.80;23.10;;;;;;5032773;28;20543;-70
2022/04/21 05:16:51;;;;;;;10.63;9.88;;;3.90;22.80;;;;;;5032867;28;20186;-70
2022/04/21 05:19:19;;;;;;;11.10;9.98;;;3.70;22.90;;;;;;5032317;28;20191;-71
2022/04/21 05:21:45;;;;;;;11.65;10.63;;;3.90;23.60;;;;;;5032845;28;20178;-70
2022/04/21 05:24:12;;;;;;;12.77;12.07;;;4.70;22.20;;;;;;5013044;28;20606;-70
2022/04/21 05:26:38;;;;;;;13.73;12.68;;;5.40;20.40;;;;;;5012908;28;20623;-71
2022/04/21 05:31:54;;;;;;;14.13;12.87;;;7.50;16.90;;;;;;5032991;28;20485;-71
2022/04/21 05:34:20;;;;;;;15.97;14.67;;;8.90;15.70;;;;;;5032573;28;20469;-71
2022/04/21 05:36:46;;;;;;;17.53;15.80;;;10.00;12.80;;;;;;5032515;28;20478;-71
2022/04/21 05:39:12;;;;;;;18.43;17.17;;;11.20;10.50;;;;;;5031826;28;21019;-68
2022/04/21 05:41:38;;;;;;;18.17;16.70;;;12.20;7.80;;;;;;5032360;28;20707;-69
2022/04/21 05:44:06;;;;;;;17.17;15.67;;;13.00;7.50;;;;;;5032482;28;20934;-68
2022/04/21 05:46:32;;;;;;;17.87;16.67;;;13.80;6.10;;;;;;5032347;28;20455;-69
2022/04/21 05:48:58;;;;;;;16.90;16.00;;;14.50;6.10;;;;;;5031832;28;20513;-69
2022/04/21 05:51:24;;;;;;;17.10;16.10;;;15.30;4.50;;;;;;5032488;28;20948;-70
2022/04/21 05:53:50;;;;;;;17.70;16.47;;;16.00;3.00;;;;;;5030874;28;20459;-70
2022/04/21 05:56:16;;;;;;;17.73;16.73;;;16.50;2.60;;;;;;5032401;28;20449;-69
2022/04/21 05:58:42;;;;;;;19.27;17.93;;;17.00;1.20;;;;;;5030333;28;20965;-68
2022/04/21 06:01:09;;;;;;;18.83;17.70;;;17.40;1.00;;;;;;5032202;28;20425;-69
2022/04/21 06:03:35;;;;;;;17.93;16.83;;;17.60;1.00;;;;;;5032067;28;20605;-69
2022/04/21 06:06:01;;;;;;;17.20;16.30;;;17.50;1.00;;;;;;5031627;28;20471;-69
2022/04/21 06:08:28;;;;;;;17.43;16.57;;;17.50;1.00;;;;;;5030822;28;20505;-69
2022/04/21 06:10:56;;;;;;;17.17;16.17;;;17.40;1.00;;;;;;5032163;28;20460;-69
2022/04/21 06:13:25;;;;;;;18.50;17.40;;;17.30;1.00;;;;;;5031458;28;20430;-69
2022/04/21 06:15:51;;;;;;;16.93;15.73;;;17.10;1.00;;;;;;5030483;28;20963;-69
2022/04/21 06:18:16;;;;;;;18.90;17.73;;;16.40;1.00;;;;;;5017048;28;20474;-69
2022/04/21 06:20:42;;;;;;;18.20;16.90;;;16.00;1.00;;;;;;5012039;28;20211;-69
2022/04/21 06:23:08;;;;;;;18.10;16.70;;;15.90;1.00;;;;;;5016174;28;20484;-69
2022/04/21 06:25:34;;;;;;;17.63;16.57;;;16.20;1.00;;;;;;5030194;28;20203;-70
2022/04/21 06:27:59;;;;;;;18.67;17.70;;;16.20;1.00;;;;;;5031054;28;20608;-69
2022/04/21 06:30:25;;;;;;;18.00;16.90;;;16.20;1.00;;;;;;5031763;28;20531;-70
2022/04/21 06:32:51;;;;;;;18.10;17.00;;;16.10;1.00;;;;;;5031283;28;20190;-70
2022/04/21 06:35:18;;;;;;;19.43;17.73;;;16.60;1.00;;;;;;5028915;28;20205;-70
2022/04/21 06:37:45;;;;;;;19.13;17.93;;;17.20;1.00;;;;;;5011566;28;20422;-70
2022/04/21 06:40:11;;;;;;;18.37;17.00;;;17.50;1.00;;;;;;5011805;28;20419;-70
2022/04/21 06:42:38;;;;;;;20.47;19.07;;;18.30;1.00;;;;;;5022263;28;20479;-71
2022/04/21 06:48:02;;;;;;;18.40;17.50;;;19.40;1.00;;;;;;5022946;28;21009;-70
2022/04/21 06:50:28;;;;;;;17.87;16.97;;;19.80;1.00;;;;;;5031616;28;20895;-70
2022/04/21 06:52:53;;;;;;;18.87;17.77;;;20.10;1.00;;;;;;5013783;28;20454;-68
2022/04/21 06:55:19;;;;;;;18.97;17.80;;;18.50;1.00;;;;;;5011423;28;20466;-68
2022/04/21 06:57:44;;;;;;;18.87;17.80;;;19.40;1.00;;;;;;5013056;28;20203;-69
2022/04/21 07:00:10;;;;;;;19.50;17.27;;;18.30;1.00;;;;;;5008274;28;20176;-69
2022/04/21 07:02:38;;;;;;;17.47;16.53;;;18.40;1.00;;;;;;5020577;28;20195;-69
2022/04/21 07:05:11;;;;;;;19.40;18.20;;;18.90;1.00;;;;;;5027288;28;20430;-70
2022/04/21 07:07:39;;;;;;;18.77;17.63;;;17.40;1.00;;;;;;5027611;28;20818;-69
2022/04/21 07:10:06;;;;;;;18.27;17.20;;;16.80;1.00;;;;;;5015027;28;20473;-69
2022/04/21 07:12:33;;;;;;;18.70;17.63;;;16.70;1.00;;;;;;5015464;28;20469;-69
2022/04/21 07:14:59;;;;;;;18.10;17.10;;;16.80;1.00;;;;;;5023310;28;20437;-70
2022/04/21 07:17:25;;;;;;;17.53;16.63;;;16.30;1.00;;;;;;5007430;28;20423;-70
2022/04/21 07:19:51;;;;;;;18.60;17.57;;;16.50;1.00;;;;;;5010912;28;20431;-70
2022/04/21 07:22:19;;;;;;;19.07;17.80;;;16.20;1.00;;;;;;5018267;28;20807;-70
2022/04/21 07:24:44;;;;;;;19.57;18.17;;;16.60;1.00;;;;;;5031183;28;20214;-71
2022/04/21 07:27:10;;;;;;;17.50;16.30;;;16.10;1.00;;;;;;5026543;28;20952;-70
2022/04/21 07:29:35;;;;;;;17.70;16.60;;;14.60;1.40;;;;;;5011535;28;20604;-70
2022/04/21 07:32:01;;;;;;;17.77;16.83;;;13.70;3.20;;;;;;5015532;28;20230;-69
2022/04/21 07:34:27;;;;;;;18.43;17.23;;;13.40;3.60;;;;;;5030530;28;20254;-70
2022/04/21 07:36:52;;;;;;;17.33;16.40;;;13.30;4.50;;;;;;5029523;28;20266;-70
2022/04/21 07:39:18;;;;;;;17.60;16.20;;;14.20;3.60;;;;;;5030220;28;20195;-69
2022/04/21 07:41:44;;;;;;;17.47;16.47;;;14.10;3.50;;;;;;5029239;28;20639;-69
2022/04/21 07:44:09;;;;;;;15.33;14.53;;;14.20;4.20;;;;;;5030816;28;20539;-69
2022/04/21 07:46:36;;;;;;;17.17;16.07;;;15.00;4.10;;;;;;5030593;28;20218;-69
2022/04/21 07:51:47;;;;;;;18.43;17.10;;;14.60;3.80;;;;;;5030269;28;20826;-67
2022/04/21 07:54:12;;;;;;;17.10;16.30;;;13.40;5.10;;;;;;5030741;28;20462;-69
2022/04/21 07:56:38;;;;;;;15.37;14.47;;;13.60;6.20;;;;;;5031560;28;20536;-69
2022/04/21 07:59:03;;;;;;;16.60;15.60;;;14.10;5.10;;;;;;5029893;28;20191;-69
2022/04/21 08:01:29;;;;;;;16.07;15.17;;;14.40;4.80;;;;;;5030597;28;20242;-69
2022/04/21 08:03:55;;;;;;;16.87;15.83;;;13.20;5.90;;;;;;5024925;28;20643;-69
2022/04/21 08:06:20;;;;;;;18.63;17.20;;;13.20;7.40;;;;;;5020397;28;20276;-69
2022/04/21 08:08:46;;;;;;;17.80;16.40;;;13.90;6.00;;;;;;5030720;28;20217;-70
2022/04/21 08:11:12;;;;;;;18.10;17.10;;;13.80;6.10;;;;;;5030308;28;20177;-69
2022/04/21 08:13:37;;;;;;;17.57;16.53;;;14.40;5.50;;;;;;5031087;28;20951;-69
2022/04/21 08:16:03;;;;;;;18.17;16.97;;;14.90;4.10;;;;;;5030279;28;20191;-69
2022/04/21 08:18:29;;;;;;;17.33;16.23;;;15.20;3.30;;;;;;5029704;28;20190;-70
2022/04/21 08:20:58;;;;;;;18.27;16.87;;;14.10;3.50;;;;;;5027508;28;20344;-69
2022/04/21 08:23:25;;;;;;;17.53;16.43;;;13.60;4.90;;;;;;5024787;28;20582;-71
2022/04/21 08:32:33;;;;;;;19.07;17.87;;;14.40;4.40;;;;;;5021720;28;20876;-67
2022/04/21 08:34:24;;;;;;;18.17;16.97;;;14.60;3.90;;;;;;5021904;28;20440;-68
2022/04/21 08:36:49;;;;;;;19.20;18.03;;;14.10;4.90;;;;;;5030425;28;20823;-67
2022/04/21 08:39:15;;;;;;;17.50;16.40;;;14.20;5.20;;;;;;5029814;28;20209;-66
2022/04/21 08:41:46;;;;;;;17.83;16.67;;;13.60;6.20;;;;;;5029636;28;20187;-68
2022/04/21 08:44:12;;;;;;;17.67;16.60;;;13.80;6.30;;;;;;5031060;28;20286;-66
2022/04/21 08:46:39;;;;;;;20.13;18.73;;;13.40;7.00;;;;;;5033182;28;20461;-71
2022/04/21 08:49:05;;;;;;;18.47;17.10;;;13.40;7.30;;;;;;5033116;28;20433;-71
2022/04/21 08:51:33;;;;;;;20.17;18.47;;;12.70;8.40;;;;;;5033364;28;20421;-72
2022/04/21 08:54:02;;;;;;;17.30;16.10;;;12.60;8.50;;;;;;5033349;28;20544;-72
2022/04/21 08:56:29;;;;;;;18.77;17.37;;;12.50;8.80;;;;;;5032921;28;20430;-69
2022/04/21 08:58:54;;;;;;;19.70;18.30;;;12.70;9.10;;;;;;5033138;28;20524;-70
2022/04/21 09:01:20;;;;;;;18.03;16.93;;;12.70;9.00;;;;;;5032930;28;20539;-71
2022/04/21 09:03:49;;;;;;;19.23;17.83;;;12.40;9.40;;;;;;5012375;28;20800;-70
2022/04/21 09:06:14;;;;;;;18.97;17.43;;;12.30;10.00;;;;;;5021384;28;20186;-70
2022/04/21 09:08:40;;;;;;;19.23;17.90;;;12.20;10.30;;;;;;5022790;28;20419;-70
2022/04/21 09:11:07;;;;;;;19.60;18.07;;;12.40;10.00;;;;;;5013354;28;20663;-70
2022/04/21 09:13:46;;;;;;;18.23;16.80;;;12.50;9.90;;;;;;5013599;28;20262;-70
2022/04/21 09:16:13;;;;;;;18.97;17.70;;;12.70;9.70;;;;;;5032726;28;20435;-70
2022/04/21 09:18:46;;;;;;;18.87;17.57;;;12.70;9.90;;;;;;5032407;28;20465;-71
2022/04/21 09:21:17;;;;;;;17.60;16.30;;;12.80;9.40;;;;;;5020113;28;20434;-71
2022/04/21 09:23:44;;;;;;;18.77;17.50;;;12.80;9.40;;;;;;5012645;28;20521;-71
2022/04/21 09:26:14;;;;;;;18.93;17.73;;;13.10;9.10;;;;;;5023563;28;20425;-71
2022/04/21 09:28:39;;;;;;;18.97;17.77;;;12.90;9.50;;;;;;5032280;28;20430;-71
2022/04/21 09:31:08;;;;;;;19.30;18.00;;;13.00;9.30;;;;;;5032724;28;20509;-71
2022/04/21 09:33:40;;;;;;;19.47;18.07;;;12.90;9.20;;;;;;5032422;28;20436;-71
2022/04/21 09:36:07;;;;;;;19.37;17.87;;;12.90;9.10;;;;;;5032101;28;20433;-71
2022/04/21 09:38:34;;;;;;;19.30;17.90;;;12.80;9.10;;;;;;5031882;28;20929;-71
2022/04/21 09:41:06;;;;;;;19.03;17.73;;;13.00;9.20;;;;;;5032359;28;20973;-70
2022/04/21 09:43:33;;;;;;;21.60;19.97;;;12.90;9.00;;;;;;5032599;28;20943;-71
2022/04/21 09:46:17;;;;;;;19.87;18.50;;;12.80;8.60;;;;;;5027787;28;20433;-70
2022/04/21 09:48:44;;;;;;;20.90;19.00;;;13.10;9.30;;;;;;5027821;28;20449;-70
2022/04/21 09:51:15;;;;;;;19.87;18.13;;;13.20;9.30;;;;;;5027488;28;20425;-69
2022/04/21 09:54:11;;;;;;;16.13;15.03;;;13.40;8.50;;;;;;5028276;28;20466;-71
2022/04/21 09:56:40;;;;;;;17.43;16.23;;;13.00;7.50;;;;;;5023730;28;20438;-68
2022/04/21 09:59:10;;;;;;;18.27;17.07;;;13.30;8.10;;;;;;5007433;28;20434;-69
2022/04/21 10:01:38;;;;;;;19.80;18.33;;;13.40;8.20;;;;;;5008304;28;20965;-69
2022/04/21 10:04:11;;;;;;;18.60;17.07;;;13.50;7.60;;;;;;5008592;28;20952;-70
2022/04/21 10:06:41;;;;;;;18.30;16.53;;;13.70;7.50;;;;;;5020318;28;20880;-70
2022/04/21 10:09:08;;;;;;;19.47;18.27;;;14.00;7.90;;;;;;5027401;28;20506;-70
2022/04/21 10:11:36;;;;;;;20.37;18.93;;;14.00;7.40;;;;;;5027746;28;20465;-70
2022/04/21 10:14:04;;;;;;;19.63;18.20;;;14.10;7.40;;;;;;5028348;28;20538;-70
2022/04/21 10:16:29;;;;;;;17.87;16.63;;;14.40;7.00;;;;;;5028101;28;20419;-70
2022/04/21 10:18:57;;;;;;;18.83;17.47;;;14.40;5.80;;;;;;5031102;28;20471;-70
2022/04/21 10:21:34;;;;;;;18.03;16.80;;;14.20;6.00;;;;;;5030345;28;20213;-70
2022/04/21 10:24:00;;;;;;;17.70;16.40;;;14.50;5.80;;;;;;5031780;28;20439;-70
2022/04/21 10:26:40;;;;;;;17.40;16.43;;;14.40;5.00;;;;;;5031763;28;20423;-70
2022/04/21 10:29:23;;;;;;;17.77;16.50;;;14.60;5.40;;;;;;5025559;28;20772;-69
2022/04/21 10:32:05;;;;;;;17.10;16.20;;;14.50;5.20;;;;;;5012397;28;20405;-70
2022/04/21 10:34:40;;;;;;;16.43;15.33;;;14.60;4.70;;;;;;5012220;28;20937;-71
2022/04/21 10:37:24;;;;;;;19.37;17.67;;;14.70;4.70;;;;;;5026991;28;20517;-70
2022/04/21 10:40:07;;;;;;;18.43;17.23;;;14.70;4.70;;;;;;5032171;28;20512;-70
2022/04/21 10:42:51;;;;;;;17.40;16.30;;;14.80;4.00;;;;;;5031950;28;20430;-70
2022/04/21 10:45:22;;;;;;;18.63;17.43;;;14.50;4.60;;;;;;5031543;28;20797;-71
2022/04/21 10:48:12;;;;;;;18.40;17.30;;;14.60;3.90;;;;;;5031481;28;20461;-71
2022/04/21 10:50:42;;;;;;;16.50;15.63;;;14.60;3.80;;;;;;5032035;28;20414;-70
2022/04/21 10:58:38;;;;;;;16.53;15.70;;;14.80;4.00;;;;;;5035988;28;20431;-70
2022/04/21 11:01:23;;;;;;;16.60;15.50;;;14.80;4.10;;;;;;5035681;28;20438;-70
2022/04/21 11:04:09;;;;;;;17.90;16.80;;;14.90;4.10;;;;;;5035703;28;20615;-70
2022/04/21 11:06:40;;;;;;;16.80;15.70;;;14.60;3.90;;;;;;5035511;28;20470;-69
2022/04/21 11:09:06;;;;;;;17.30;16.30;;;14.60;4.50;;;;;;5035341;28;20425;-68
2022/04/21 11:11:46;;;;;;;16.57;15.67;;;14.80;4.50;;;;;;5035321;28;20435;-67
2022/04/21 11:14:27;;;;;;;17.80;16.70;;;14.90;4.70;;;;;;5036145;28;20573;-67
2022/04/21 11:16:52;;;;;;;18.00;17.00;;;15.00;4.10;;;;;;5035406;28;20497;-69
2022/04/21 11:19:30;;;;;;;18.30;16.70;;;15.00;4.80;;;;;;5035338;28;20445;-67
2022/04/21 11:21:57;;;;;;;16.47;15.47;;;15.10;4.60;;;;;;5035205;28;20193;-67
2022/04/21 11:24:24;;;;;;;15.90;15.00;;;15.10;4.90;;;;;;5035116;28;20517;-68
2022/04/21 11:26:57;;;;;;;17.40;15.90;;;15.10;4.60;;;;;;5034951;28;20455;-68
2022/04/21 11:29:22;;;;;;;18.47;17.37;;;15.20;4.80;;;;;;5034501;28;20419;-67
2022/04/21 11:31:48;;;;;;;18.67;17.50;;;15.10;4.20;;;;;;5035077;28;20418;-67
2022/04/21 11:34:25;;;;;;;17.40;16.33;;;15.20;4.50;;;;;;5035156;28;20612;-66
2022/04/21 11:36:56;;;;;;;16.57;15.67;;;15.40;5.00;;;;;;5035171;28;20422;-67
2022/04/21 11:39:22;;;;;;;16.57;15.57;;;15.30;4.30;;;;;;5034780;28;20445;-67
2022/04/21 11:41:52;;;;;;;17.10;15.73;;;15.40;4.50;;;;;;5034833;28;20811;-68
2022/04/21 11:44:25;;;;;;;15.80;14.90;;;15.50;4.50;;;;;;5034620;28;20207;-67
2022/04/21 11:46:51;;;;;;;17.67;16.57;;;15.40;4.40;;;;;;5034776;28;20466;-67
2022/04/21 11:49:16;;;;;;;16.67;15.77;;;15.30;4.70;;;;;;5034480;28;20495;-68
2022/04/21 11:51:43;;;;;;;16.63;15.63;;;15.50;4.90;;;;;;5034549;28;20260;-68
2022/04/21 11:54:10;;;;;;;15.27;14.40;;;15.40;4.40;;;;;;5034576;28;20460;-68
2022/04/21 11:56:37;;;;;;;17.40;15.90;;;15.50;4.70;;;;;;5034674;28;20910;-69
2022/04/21 11:59:08;;;;;;;17.67;16.57;;;15.50;4.80;;;;;;5034208;28;20423;-68
2022/04/21 12:07:08;;;;;;;16.27;15.17;;;15.50;4.90;;;;;;5034593;28;20511;-67
2022/04/21 12:09:34;;;;;;;15.70;14.90;;;15.60;4.50;;;;;;5034367;28;20818;-69
2022/04/21 12:12:02;;;;;;;15.90;15.00;;;15.70;5.00;;;;;;5034323;28;20429;-69
2022/04/21 12:14:29;;;;;;;15.80;15.00;;;15.80;4.70;;;;;;5033953;28;20439;-69
2022/04/21 12:16:58;;;;;;;16.87;15.73;;;15.90;4.80;;;;;;5034156;28;20436;-70
2022/04/21 12:19:46;;;;;;;15.20;14.40;;;15.80;4.70;;;;;;5033976;28;20435;-66
2022/04/21 12:22:16;;;;;;;15.90;14.87;;;15.20;5.60;;;;;;5034102;28;20475;-67
2022/04/21 12:24:51;;;;;;;16.63;15.70;;;15.50;5.60;;;;;;5042988;28;20433;-66
2022/04/21 12:27:28;;;;;;;15.43;14.53;;;15.70;5.60;;;;;;5053838;28;20919;-69
2022/04/21 12:29:58;;;;;;;17.23;16.17;;;15.70;4.90;;;;;;5041233;28;20944;-67
2022/04/21 12:32:25;;;;;;;16.43;15.53;;;15.70;5.20;;;;;;5033133;28;20438;-67
2022/04/21 12:34:54;;;;;;;16.40;15.50;;;15.70;5.10;;;;;;5017370;28;20508;-67
2022/04/21 12:37:31;;;;;;;15.20;14.37;;;15.90;4.80;;;;;;5033578;28;20780;-68
2022/04/21 12:40:02;;;;;;;15.40;14.30;;;16.00;4.80;;;;;;5048668;28;20775;-69
2022/04/21 12:42:28;;;;;;;14.70;13.87;;;16.10;4.90;;;;;;5033603;28;20397;-69
2022/04/21 12:44:54;;;;;;;15.70;14.70;;;15.80;4.70;;;;;;5033175;28;20484;-69
2022/04/21 12:47:21;;;;;;;15.57;14.70;;;16.10;4.90;;;;;;5033284;28;20883;-68
2022/04/21 12:49:54;;;;;;;16.00;14.87;;;16.00;4.80;;;;;;5029983;28;20413;-69
2022/04/21 12:52:34;;;;;;;14.77;13.73;;;15.90;4.70;;;;;;5012335;28;20537;-69
2022/04/21 12:55:02;;;;;;;16.00;15.00;;;15.90;4.80;;;;;;5012803;28;20523;-68
2022/04/21 12:57:28;;;;;;;15.87;14.83;;;16.20;5.00;;;;;;5018534;28;20438;-69
2022/04/21 12:59:55;;;;;;;16.47;15.47;;;16.30;5.00;;;;;;5011489;28;20968;-69
2022/04/21 13:02:20;;;;;;;14.77;14.03;;;16.60;4.60;;;;;;5010921;28;20259;-69
2022/04/21 13:04:47;;;;;;;15.67;14.40;;;16.70;4.10;;;;;;5010443;28;20529;-68
2022/04/21 13:07:13;;;;;;;15.40;14.30;;;16.60;4.50;;;;;;5011766;28;20213;-69
2022/04/21 13:09:38;;;;;;;15.23;14.43;;;16.80;4.20;;;;;;5012123;28;20411;-69
2022/04/21 13:12:05;;;;;;;16.27;15.33;;;16.80;4.00;;;;;;5011902;28;20172;-69
2022/04/21 13:14:30;;;;;;;16.40;15.50;;;16.60;3.90;;;;;;5012883;28;20196;-69
2022/04/21 13:16:56;;;;;;;14.83;13.97;;;16.40;3.70;;;;;;5012439;28;20426;-69
2022/04/21 13:19:22;;;;;;;15.17;14.27;;;16.40;5.10;;;;;;5012816;28;20195;-68
2022/04/21 13:21:55;;;;;;;16.10;15.00;;;16.80;4.80;;;;;;5013041;28;20421;-68
2022/04/21 13:24:25;;;;;;;15.40;14.70;;;16.90;3.70;;;;;;5012991;28;20612;-68
2022/04/21 13:26:52;;;;;;;14.50;13.80;;;16.70;3.60;;;;;;5012821;28;20455;-68